createdAt,value
2018-12-25T00:05:42.370Z,8.84
2018-12-25T00:11:37.368Z,6.36
2018-12-25T00:17:32.349Z,7.04
2018-12-25T00:23:27.359Z,4.22
2018-12-25T00:29:22.361Z,7.07
2018-12-25T00:35:17.391Z,7.04
2018-12-25T00:41:12.417Z,6.19
2018-12-25T00:47:07.384Z,7.15
2018-12-25T00:53:02.392Z,5.18
2018-12-25T00:58:57.407Z,22.62
2018-12-25T01:04:52.427Z,4.09
2018-12-25T01:10:47.399Z,7.16
2018-12-25T01:16:42.414Z,10.57
2018-12-25T01:22:37.414Z,2.16
2018-12-25T01:28:32.410Z,2.68
2018-12-25T01:34:27.430Z,3.47
2018-12-25T01:40:22.416Z,5.24
2018-12-25T01:46:17.416Z,4.08
2018-12-25T01:52:12.407Z,5.09
2018-12-25T01:58:07.484Z,6.7
2018-12-25T02:04:02.441Z,6.41
2018-12-25T02:09:57.429Z,3.61
2018-12-25T02:15:52.423Z,5.9
2018-12-25T02:21:47.442Z,4.85
2018-12-25T02:27:42.488Z,4.02
2018-12-25T02:33:37.464Z,6.28
2018-12-25T02:39:32.489Z,3.87
2018-12-25T02:45:27.461Z,6.85
2018-12-25T02:51:22.458Z,4.96
2018-12-25T02:57:17.461Z,3.6
2018-12-25T03:03:12.452Z,6.19
2018-12-25T03:09:07.478Z,3.55
2018-12-25T03:15:02.481Z,5.42
2018-12-25T03:20:57.482Z,3.62
2018-12-25T03:26:52.470Z,4.29
2018-12-25T03:32:47.518Z,4.05
2018-12-25T03:38:42.500Z,7.28
2018-12-25T03:44:37.483Z,3.63
2018-12-25T03:50:32.472Z,2.38
2018-12-25T03:56:27.498Z,3.07
2018-12-25T04:02:22.488Z,3.41
2018-12-25T04:08:17.507Z,3.79
2018-12-25T04:14:12.505Z,4.43
2018-12-25T04:20:07.508Z,3.33
2018-12-25T04:26:02.510Z,3.38
2018-12-25T04:31:57.510Z,7
2018-12-25T04:37:52.529Z,4.92
2018-12-25T04:43:47.513Z,4.26
2018-12-25T04:49:42.516Z,5.19
2018-12-25T04:55:37.574Z,4.83
2018-12-25T05:01:32.565Z,4.94
2018-12-25T05:07:27.534Z,3.12
2018-12-25T05:13:22.587Z,5.31
2018-12-25T05:19:17.532Z,5.52
2018-12-25T05:25:12.542Z,5.2
2018-12-25T05:31:07.597Z,5.34
2018-12-25T05:37:02.541Z,5.24
2018-12-25T05:42:57.622Z,7.87
2018-12-25T05:48:52.573Z,7.24
2018-12-25T05:54:47.569Z,4.19
2018-12-25T06:00:42.545Z,4.9
2018-12-25T06:06:37.597Z,4.02
2018-12-25T06:12:32.560Z,8.5
2018-12-25T06:18:27.596Z,6.1
2018-12-25T06:24:22.617Z,5.06
2018-12-25T06:30:17.576Z,5.94
2018-12-25T06:36:12.583Z,5.31
2018-12-25T06:42:07.611Z,5.17
2018-12-25T06:48:02.583Z,7.28
2018-12-25T06:53:57.612Z,7.91
2018-12-25T06:59:52.653Z,7.07
2018-12-25T07:05:47.597Z,9.23
2018-12-25T07:11:42.608Z,12.11
2018-12-25T07:17:37.596Z,8.22
2018-12-25T07:23:32.597Z,10.62
2018-12-25T07:29:27.609Z,10.68
2018-12-25T07:35:22.623Z,10.24
2018-12-25T07:41:17.653Z,26.22
2018-12-25T07:47:12.614Z,20.71
2018-12-25T07:53:07.616Z,13.05
2018-12-25T07:59:02.619Z,7.89
2018-12-25T08:04:57.652Z,8.27
2018-12-25T08:10:52.652Z,9.7
2018-12-25T08:16:47.690Z,10.12
2018-12-25T08:22:42.668Z,9.43
2018-12-25T08:28:37.644Z,10.07
2018-12-25T08:34:32.626Z,10
2018-12-25T08:40:27.635Z,9.82
2018-12-25T08:46:22.658Z,11.71
2018-12-25T08:52:17.659Z,10.6
2018-12-25T08:58:12.687Z,10.24
2018-12-25T09:04:07.685Z,11.82
2018-12-25T09:10:02.677Z,13.73
2018-12-25T09:15:57.683Z,17.64
2018-12-25T09:21:52.663Z,11.46
2018-12-25T09:27:47.685Z,6.17
2018-12-25T09:33:42.707Z,9.83
2018-12-25T09:39:37.676Z,8.9
2018-12-25T09:45:32.713Z,15.13
2018-12-25T09:51:27.688Z,6.93
2018-12-25T09:57:22.671Z,4.74
2018-12-25T10:03:17.674Z,7.42
2018-12-25T10:09:12.730Z,8.31
2018-12-25T10:15:07.773Z,4.78
2018-12-25T10:21:02.698Z,4.73
2018-12-25T10:26:57.703Z,4.39
2018-12-25T10:32:52.699Z,4.83
2018-12-25T10:38:47.713Z,6
2018-12-25T10:44:42.692Z,4.78
2018-12-25T10:50:37.725Z,4.83
2018-12-25T10:56:32.731Z,7.42
2018-12-25T11:02:27.733Z,2.69
2018-12-25T11:08:22.822Z,8.03
2018-12-25T11:14:17.740Z,4.87
2018-12-25T11:20:12.745Z,6.06
2018-12-25T11:26:07.727Z,4.8
2018-12-25T11:32:02.751Z,9.54
2018-12-25T11:37:57.751Z,10.35
2018-12-25T11:43:52.756Z,7.72
2018-12-25T11:49:47.749Z,7.55
2018-12-25T11:55:42.758Z,6.49
2018-12-25T12:01:37.761Z,6.59
2018-12-25T12:07:32.754Z,5.36
2018-12-25T12:13:27.752Z,4.61
2018-12-25T12:19:22.755Z,5.72
2018-12-25T12:25:17.771Z,3.54
2018-12-25T12:31:12.751Z,3.13
2018-12-25T12:37:07.774Z,2.59
2018-12-25T12:43:02.776Z,3.27
2018-12-25T12:48:57.814Z,4.63
2018-12-25T12:54:52.830Z,4.32
2018-12-25T13:00:47.798Z,4.97
2018-12-25T13:06:42.786Z,3.62
2018-12-25T13:12:37.819Z,3.93
2018-12-25T13:18:32.802Z,2.13
2018-12-25T13:24:27.798Z,1.17
2018-12-25T13:30:22.802Z,2.03
2018-12-25T13:36:17.818Z,1.47
2018-12-25T13:42:12.806Z,1.27
2018-12-25T13:48:07.810Z,7.5
2018-12-25T13:54:02.830Z,1.79
2018-12-25T13:59:57.840Z,1.22
2018-12-25T14:05:52.887Z,1.31
2018-12-25T14:11:47.819Z,1.86
2018-12-25T14:17:42.878Z,1.09
2018-12-25T14:23:37.851Z,1.34
2018-12-25T14:29:32.839Z,1.46
2018-12-25T14:35:27.839Z,1.07
2018-12-25T14:41:22.869Z,9.03
2018-12-25T14:47:17.885Z,2.88
2018-12-25T14:53:19.647Z,2.59
2018-12-25T14:59:07.855Z,4.87
2018-12-25T15:05:02.867Z,4.73
2018-12-25T15:10:57.860Z,6.57
2018-12-25T15:16:52.875Z,1.65
2018-12-25T15:22:47.848Z,5.07
2018-12-25T15:28:42.870Z,4.98
2018-12-25T15:34:37.879Z,13.67
2018-12-25T15:40:32.901Z,9.12
2018-12-25T15:46:27.903Z,4.68
2018-12-25T15:52:22.883Z,4.07
2018-12-25T15:58:17.920Z,5.97
2018-12-25T16:04:12.909Z,10.39
2018-12-25T16:10:07.900Z,9.06
2018-12-25T16:16:02.894Z,8.63
2018-12-25T16:21:57.922Z,13.82
2018-12-25T16:27:52.903Z,7.07
2018-12-25T16:33:47.915Z,10.29
2018-12-25T16:39:42.973Z,16.48
2018-12-25T16:45:37.931Z,14.86
2018-12-25T16:51:32.972Z,13.59
2018-12-25T16:57:27.931Z,15.84
2018-12-25T17:03:22.983Z,13.98
2018-12-25T17:09:17.920Z,13.19
2018-12-25T17:15:12.965Z,8.6
2018-12-25T17:21:07.952Z,9.4
2018-12-25T17:27:02.947Z,25.45
2018-12-25T17:32:57.992Z,20.86
2018-12-25T17:38:53.001Z,17.27
2018-12-25T17:44:47.982Z,14.76
2018-12-25T17:50:42.993Z,9.64
2018-12-25T17:56:38.205Z,12.89
2018-12-25T18:02:32.960Z,16.06
2018-12-25T18:08:27.958Z,19.18
2018-12-25T18:14:23.003Z,20.42
2018-12-25T18:20:17.958Z,31.14
2018-12-25T18:26:12.977Z,25.45
2018-12-25T18:32:07.972Z,31.9
2018-12-25T18:38:03.007Z,31.63
2018-12-25T18:43:58.043Z,24.38
2018-12-25T18:49:53.056Z,18.4
2018-12-25T18:55:48.008Z,19.17
2018-12-25T19:01:43.090Z,15.62
2018-12-25T19:07:37.997Z,19.52
2018-12-25T19:13:33.023Z,16.35
2018-12-25T19:19:28.032Z,22.3
2018-12-25T19:25:23.053Z,19.12
2018-12-25T19:31:18.023Z,16.68
2018-12-25T19:37:13.129Z,19.44
2018-12-25T19:43:08.016Z,25.11
2018-12-25T19:49:03.018Z,23.08
2018-12-25T19:54:58.083Z,17.48
2018-12-25T20:00:53.019Z,25.49
2018-12-25T20:06:48.076Z,25.43
2018-12-25T20:12:43.034Z,20.2
2018-12-25T20:18:38.055Z,22.81
2018-12-25T20:24:33.123Z,26.84
2018-12-25T20:30:28.072Z,18.53
2018-12-25T20:36:23.052Z,19.04
2018-12-25T20:42:18.079Z,18.11
2018-12-25T20:48:13.065Z,23.99
2018-12-25T20:54:08.075Z,19.16
2018-12-25T21:00:03.100Z,20.53
2018-12-25T21:05:58.071Z,16.93
2018-12-25T21:11:53.107Z,18.11
2018-12-25T21:17:48.077Z,28.29
2018-12-25T21:23:43.073Z,71.55
2018-12-25T21:29:38.087Z,37.56
2018-12-25T21:35:33.068Z,26.43
2018-12-25T21:41:28.071Z,22.65
2018-12-25T21:47:23.103Z,23.48
2018-12-25T21:53:18.072Z,17.81
2018-12-25T21:59:13.134Z,20.54
2018-12-25T22:05:08.134Z,19.2
2018-12-25T22:11:03.146Z,23.36
2018-12-25T22:16:58.105Z,25.27
2018-12-25T22:22:53.134Z,20.73
2018-12-25T22:28:48.151Z,20.54
2018-12-25T22:34:43.161Z,22.61
2018-12-25T22:40:38.169Z,18.15
2018-12-25T22:46:33.114Z,18.64
2018-12-25T22:52:28.114Z,17.24
2018-12-25T22:58:23.127Z,26.38
2018-12-25T23:04:18.137Z,30.76
2018-12-25T23:10:13.168Z,27.87
2018-12-25T23:16:08.167Z,23.06
2018-12-25T23:22:03.170Z,20.5
2018-12-25T23:27:58.171Z,25.49
2018-12-25T23:33:53.143Z,28.27
2018-12-25T23:39:48.160Z,30.83
2018-12-25T23:45:43.180Z,30.99
2018-12-25T23:51:38.150Z,22.92
2018-12-25T23:57:33.184Z,23.73
